createdAt,value
2018-05-14T00:00:26.066Z,13.60
2018-05-14T00:02:22.516Z,13.65
2018-05-14T00:03:21.993Z,13.66
2018-05-14T00:05:17.929Z,13.69
2018-05-14T00:06:17.926Z,13.68
2018-05-14T00:08:13.903Z,13.69
2018-05-14T00:09:13.881Z,13.68
2018-05-14T00:11:09.798Z,13.66
2018-05-14T00:12:10.319Z,13.70
2018-05-14T00:14:05.739Z,13.65
2018-05-14T00:15:06.744Z,13.70
2018-05-14T00:17:01.685Z,13.63
2018-05-14T00:18:01.684Z,13.69
2018-05-14T00:19:57.666Z,13.65
2018-05-14T00:20:57.643Z,13.69
2018-05-14T00:22:54.094Z,13.78
2018-05-14T00:23:53.594Z,13.73
2018-05-14T00:25:49.514Z,13.75
2018-05-14T00:26:49.517Z,13.76
2018-05-14T00:28:46.965Z,13.78
2018-05-14T00:29:45.439Z,13.84
2018-05-14T00:31:41.900Z,13.81
2018-05-14T00:32:41.389Z,13.84
2018-05-14T00:34:37.896Z,13.83
2018-05-14T00:35:37.346Z,13.83
2018-05-14T00:37:33.269Z,13.90
2018-05-14T00:38:33.268Z,13.94
2018-05-14T00:40:29.214Z,13.90
2018-05-14T00:41:29.234Z,13.90
2018-05-14T00:43:25.184Z,13.87
2018-05-14T00:44:25.157Z,13.88
2018-05-14T00:46:24.122Z,13.90
2018-05-14T00:47:24.115Z,13.83
2018-05-14T00:49:19.711Z,13.93
2018-05-14T00:50:19.180Z,13.91
2018-05-14T00:52:15.102Z,13.93
2018-05-14T00:53:15.111Z,13.94
2018-05-14T00:55:11.122Z,13.99
2018-05-14T00:56:11.576Z,13.95
2018-05-14T00:58:09.536Z,13.95
2018-05-14T00:59:09.015Z,13.97
2018-05-14T01:01:04.982Z,13.91
2018-05-14T01:02:04.910Z,14.03
2018-05-14T01:04:02.863Z,13.95
2018-05-14T01:05:02.852Z,13.94
2018-05-14T01:06:59.295Z,14.05
2018-05-14T01:07:58.808Z,13.95
2018-05-14T01:09:56.749Z,14.02
2018-05-14T01:10:56.728Z,14.02
2018-05-14T01:12:52.701Z,13.95
2018-05-14T01:13:52.669Z,14.05
2018-05-14T01:15:48.621Z,13.91
2018-05-14T01:16:48.634Z,14.06
2018-05-14T01:18:43.045Z,14.01
2018-05-14T01:19:43.043Z,14.03
2018-05-14T01:21:38.934Z,13.95
2018-05-14T01:22:39.493Z,13.97
2018-05-14T01:24:36.395Z,13.93
2018-05-14T01:25:34.876Z,13.91
2018-05-14T01:27:31.349Z,13.91
2018-05-14T01:28:30.825Z,13.88
2018-05-14T01:30:25.782Z,13.88
2018-05-14T01:31:25.786Z,13.86
2018-05-14T01:33:21.221Z,13.94
2018-05-14T01:34:21.215Z,13.84
2018-05-14T01:36:17.198Z,13.84
2018-05-14T01:37:17.147Z,13.86
2018-05-14T01:39:13.117Z,13.83
2018-05-14T01:40:13.085Z,13.81
2018-05-14T01:42:11.049Z,13.87
2018-05-14T01:43:11.044Z,13.83
2018-05-14T01:45:08.494Z,13.86
2018-05-14T01:46:06.963Z,13.84
2018-05-14T01:48:02.931Z,13.81
2018-05-14T01:49:03.422Z,13.76
2018-05-14T01:50:59.351Z,13.79
2018-05-14T01:51:58.823Z,13.78
2018-05-14T01:53:55.304Z,13.76
2018-05-14T01:54:54.780Z,13.69
2018-05-14T01:56:50.742Z,13.79
2018-05-14T01:57:50.726Z,13.72
2018-05-14T01:59:46.719Z,13.75
2018-05-14T02:00:46.672Z,13.75
2018-05-14T02:02:44.657Z,13.79
2018-05-14T02:03:44.639Z,13.70
2018-05-14T02:05:43.084Z,13.83
2018-05-14T02:06:42.575Z,13.86
2018-05-14T02:08:38.548Z,13.76
2018-05-14T02:09:38.515Z,13.76
2018-05-14T02:11:34.971Z,13.84
2018-05-14T02:12:34.430Z,13.79
2018-05-14T02:14:30.418Z,13.87
2018-05-14T02:15:30.904Z,13.72
2018-05-14T02:17:26.324Z,13.84
2018-05-14T02:18:26.313Z,13.84
2018-05-14T02:20:22.284Z,13.84
2018-05-14T02:21:22.253Z,13.76
2018-05-14T02:23:20.731Z,13.78
2018-05-14T02:24:20.195Z,13.72
2018-05-14T02:26:14.622Z,13.81
2018-05-14T02:27:14.629Z,13.68
2018-05-14T02:29:10.596Z,13.69
2018-05-14T02:30:10.574Z,13.72
2018-05-14T02:32:06.516Z,13.65
2018-05-14T02:33:06.513Z,13.63
2018-05-14T02:35:01.457Z,13.63
2018-05-14T02:36:00.954Z,13.68
2018-05-14T02:37:59.403Z,13.68
2018-05-14T02:38:59.405Z,13.66
2018-05-14T02:40:54.792Z,13.76
2018-05-14T02:41:55.357Z,13.69
2018-05-14T02:43:50.801Z,13.68
2018-05-14T02:44:50.751Z,13.73
2018-05-14T02:46:46.709Z,13.73
2018-05-14T02:47:46.695Z,13.72
2018-05-14T02:49:42.617Z,13.73
2018-05-14T02:50:43.141Z,13.76
2018-05-14T02:52:39.085Z,13.81
2018-05-14T02:53:38.581Z,13.73
2018-05-14T02:55:34.597Z,13.76
2018-05-14T02:56:35.042Z,13.78
2018-05-14T02:58:31.401Z,13.72
2018-05-14T02:59:30.440Z,13.78
2018-05-14T03:01:26.353Z,13.79
2018-05-14T03:02:26.346Z,13.81
2018-05-14T03:04:22.307Z,13.78
2018-05-14T03:05:22.286Z,13.76
2018-05-14T03:07:19.242Z,13.63
2018-05-14T03:08:18.748Z,13.66
2018-05-14T03:10:14.175Z,13.65
2018-05-14T03:11:14.682Z,13.72
2018-05-14T03:13:10.123Z,13.66
2018-05-14T03:14:10.120Z,13.72
2018-05-14T03:16:03.555Z,13.65
2018-05-14T03:17:03.557Z,13.68
2018-05-14T03:18:59.546Z,13.68
2018-05-14T03:19:59.494Z,13.68
2018-05-14T03:21:55.455Z,13.55
2018-05-14T03:22:55.441Z,13.68
2018-05-14T03:24:51.404Z,13.63
2018-05-14T03:25:51.415Z,13.68
2018-05-14T03:27:47.856Z,13.66
2018-05-14T03:28:47.857Z,13.55
2018-05-14T03:30:43.226Z,13.70
2018-05-14T03:31:43.220Z,13.72
2018-05-14T03:33:39.156Z,13.65
2018-05-14T03:34:39.183Z,13.63
2018-05-14T03:36:36.059Z,13.69
2018-05-14T03:37:35.123Z,13.69
2018-05-14T03:39:31.069Z,13.68
2018-05-14T03:40:31.053Z,13.72
2018-05-14T03:42:27.501Z,13.76
2018-05-14T03:43:27.001Z,13.75
2018-05-14T03:45:22.960Z,13.65
2018-05-14T03:46:23.447Z,13.66
2018-05-14T03:48:19.403Z,13.66
2018-05-14T03:49:19.417Z,13.68
2018-05-14T03:51:14.807Z,13.69
2018-05-14T03:52:14.797Z,13.73
2018-05-14T03:54:12.250Z,13.78
2018-05-14T03:55:10.741Z,13.75
2018-05-14T03:57:07.263Z,13.68
2018-05-14T03:58:07.185Z,13.65
2018-05-14T04:00:03.130Z,13.75
2018-05-14T04:01:03.121Z,13.58
2018-05-14T04:02:57.050Z,13.68
2018-05-14T04:03:57.065Z,13.70
2018-05-14T04:05:55.015Z,13.66
2018-05-14T04:06:53.545Z,13.63
2018-05-14T04:08:48.948Z,13.70
2018-05-14T04:09:48.943Z,13.63
2018-05-14T04:11:44.926Z,13.65
2018-05-14T04:12:45.410Z,13.65
2018-05-14T04:14:41.343Z,13.68
2018-05-14T04:15:40.857Z,13.75
2018-05-14T04:17:34.316Z,13.72
2018-05-14T04:18:34.287Z,13.69
2018-05-14T04:20:30.714Z,13.69
2018-05-14T04:21:30.716Z,13.79
2018-05-14T04:23:25.675Z,13.73
2018-05-14T04:24:24.734Z,13.66
2018-05-14T04:26:20.625Z,13.78
2018-05-14T04:27:20.629Z,13.78
2018-05-14T04:29:17.078Z,13.83
2018-05-14T04:30:17.096Z,13.76
2018-05-14T04:32:12.523Z,13.84
2018-05-14T04:33:11.010Z,13.79
2018-05-14T04:35:05.456Z,13.81
2018-05-14T04:36:05.962Z,13.83
2018-05-14T04:38:01.441Z,13.91
2018-05-14T04:39:01.911Z,13.90
2018-05-14T04:40:57.286Z,13.87
2018-05-14T04:41:57.306Z,13.88
2018-05-14T04:43:53.784Z,13.91
2018-05-14T04:44:53.228Z,13.95
2018-05-14T04:46:49.241Z,13.93
2018-05-14T04:47:49.227Z,13.99
2018-05-14T04:49:43.659Z,14.02
2018-05-14T04:50:43.674Z,14.08
2018-05-14T04:52:40.107Z,14.05
2018-05-14T04:53:39.593Z,14.06
2018-05-14T04:55:35.540Z,14.09
2018-05-14T04:56:35.546Z,14.09
2018-05-14T04:58:31.495Z,14.09
2018-05-14T04:59:31.489Z,14.15
2018-05-14T05:01:27.482Z,14.12
2018-05-14T05:02:27.431Z,14.13
2018-05-14T05:04:23.368Z,14.16
2018-05-14T05:05:23.358Z,14.24
2018-05-14T05:07:19.817Z,14.23
2018-05-14T05:08:19.306Z,14.28
2018-05-14T05:10:17.913Z,14.26
2018-05-14T05:11:17.771Z,14.23
2018-05-14T05:13:14.209Z,14.31
2018-05-14T05:14:13.209Z,14.39
2018-05-14T05:16:09.153Z,14.31
2018-05-14T05:17:09.188Z,14.30
2018-05-14T05:19:05.620Z,14.34
2018-05-14T05:20:05.626Z,14.31
2018-05-14T05:22:01.066Z,14.33
2018-05-14T05:23:01.059Z,14.45
2018-05-14T05:24:57.014Z,14.41
2018-05-14T05:25:56.993Z,14.46
2018-05-14T05:27:53.447Z,14.44
2018-05-14T05:28:52.966Z,14.49
2018-05-14T05:30:48.925Z,14.59
2018-05-14T05:31:48.847Z,14.52
2018-05-14T05:33:44.800Z,14.59
2018-05-14T05:34:45.294Z,14.53
2018-05-14T05:36:39.725Z,14.61
2018-05-14T05:37:39.223Z,14.57
2018-05-14T05:39:35.149Z,14.57
2018-05-14T05:40:35.166Z,14.56
2018-05-14T05:42:31.596Z,14.66
2018-05-14T05:43:31.097Z,14.57
2018-05-14T05:45:27.054Z,14.69
2018-05-14T05:46:27.042Z,14.66
2018-05-14T05:48:22.976Z,14.79
2018-05-14T05:49:22.974Z,14.64
2018-05-14T05:51:19.417Z,14.74
2018-05-14T05:52:18.941Z,14.71
2018-05-14T05:54:14.854Z,14.69
2018-05-14T05:55:15.372Z,14.75
2018-05-14T05:57:13.842Z,14.86
2018-05-14T05:58:13.827Z,14.79
2018-05-14T06:00:09.910Z,14.83
2018-05-14T06:01:09.949Z,14.97
2018-05-14T06:03:05.388Z,15.01
2018-05-14T06:04:04.941Z,14.86
2018-05-14T06:06:03.366Z,15.00
2018-05-14T06:07:03.000Z,14.98
2018-05-14T06:09:02.941Z,15.00
2018-05-14T06:10:01.117Z,15.00
2018-05-14T06:12:00.091Z,15.00
2018-05-14T06:12:59.099Z,15.07
2018-05-14T06:14:55.027Z,15.12
2018-05-14T06:15:55.036Z,15.20
2018-05-14T06:17:50.424Z,15.19
2018-05-14T06:18:50.496Z,15.18
2018-05-14T06:20:46.453Z,15.33
2018-05-14T06:21:45.401Z,15.34
2018-05-14T06:23:41.348Z,15.45
2018-05-14T06:24:41.334Z,15.43
2018-05-14T06:26:38.313Z,15.41
2018-05-14T06:27:37.811Z,15.41
2018-05-14T06:29:34.729Z,15.58
2018-05-14T06:30:33.223Z,15.52
2018-05-14T06:32:30.173Z,15.60
2018-05-14T06:33:29.189Z,15.56
2018-05-14T06:35:25.186Z,15.68
2018-05-14T06:36:25.138Z,15.68
2018-05-14T06:38:21.588Z,15.73
2018-05-14T06:39:21.641Z,15.83
2018-05-14T06:41:17.527Z,15.84
2018-05-14T06:42:16.975Z,15.84
2018-05-14T06:44:12.936Z,15.92
2018-05-14T06:45:12.929Z,15.96
2018-05-14T06:47:08.895Z,16.10
2018-05-14T06:48:09.376Z,16.16
2018-05-14T06:50:05.345Z,16.13
2018-05-14T06:51:04.830Z,16.17
2018-05-14T06:53:00.772Z,16.25
2018-05-14T06:54:00.781Z,16.26
2018-05-14T06:55:56.724Z,16.32
2018-05-14T06:56:56.718Z,16.33
2018-05-14T06:58:52.668Z,16.33
2018-05-14T06:59:52.655Z,16.40
2018-05-14T07:01:48.631Z,16.48
2018-05-14T07:02:48.626Z,16.51
2018-05-14T07:04:44.568Z,16.54
2018-05-14T07:05:44.557Z,16.47
2018-05-14T07:07:40.518Z,16.52
2018-05-14T07:08:40.499Z,16.59
2018-05-14T07:10:36.496Z,16.62
2018-05-14T07:11:36.467Z,16.57
2018-05-14T07:13:32.919Z,16.62
2018-05-14T07:14:32.395Z,16.63
2018-05-14T07:16:28.374Z,16.70
2018-05-14T07:17:28.370Z,16.82
2018-05-14T07:19:24.366Z,16.94
2018-05-14T07:20:24.527Z,16.94
2018-05-14T07:22:20.244Z,16.99
2018-05-14T07:23:20.254Z,17.05
2018-05-14T07:25:16.222Z,17.15
2018-05-14T07:26:16.222Z,17.18
2018-05-14T07:28:12.145Z,17.12
2018-05-14T07:29:12.167Z,17.18
2018-05-14T07:31:08.627Z,17.09
2018-05-14T07:32:08.642Z,17.10
2018-05-14T07:34:03.537Z,17.28
2018-05-14T07:35:02.515Z,17.27
2018-05-14T07:36:57.013Z,17.21
2018-05-14T07:37:56.029Z,17.25
2018-05-14T07:39:50.499Z,17.22
2018-05-14T07:40:50.471Z,17.38
2018-05-14T07:42:46.413Z,17.38
2018-05-14T07:43:46.448Z,17.38
2018-05-14T07:45:40.894Z,17.49
2018-05-14T07:46:40.872Z,17.45
2018-05-14T07:48:36.852Z,17.40
2018-05-14T07:49:36.841Z,17.30
2018-05-14T07:51:31.302Z,17.38
2018-05-14T07:52:30.268Z,17.54
2018-05-14T07:54:26.398Z,17.49
2018-05-14T07:55:26.276Z,17.58
2018-05-14T07:57:24.740Z,17.71
2018-05-14T07:58:24.247Z,17.86
2018-05-14T08:00:22.211Z,18.05
2018-05-14T08:01:22.161Z,18.11
2018-05-14T08:03:19.644Z,18.26
2018-05-14T08:04:18.975Z,18.32
2018-05-14T08:06:15.436Z,18.32
2018-05-14T08:07:14.989Z,18.31
2018-05-14T08:09:10.875Z,18.44
2018-05-14T08:10:10.884Z,18.34
2018-05-14T08:12:10.369Z,18.39
2018-05-14T08:13:09.870Z,18.41
2018-05-14T08:15:05.474Z,18.38
2018-05-14T08:16:05.492Z,18.39
2018-05-14T08:18:02.986Z,18.42
2018-05-14T08:19:03.415Z,18.41
2018-05-14T08:20:59.811Z,18.35
2018-05-14T08:22:00.394Z,18.39
2018-05-14T08:23:55.784Z,18.36
2018-05-14T08:24:55.800Z,18.42
2018-05-14T08:26:51.767Z,18.45
2018-05-14T08:27:51.766Z,18.39
2018-05-14T08:29:47.713Z,18.32
2018-05-14T08:30:47.712Z,18.31
2018-05-14T08:32:44.168Z,18.16
2018-05-14T08:33:43.642Z,18.13
2018-05-14T08:35:39.591Z,18.21
2018-05-14T08:36:40.600Z,18.14
2018-05-14T08:38:39.085Z,18.27
2018-05-14T08:39:37.701Z,18.29
2018-05-14T08:41:35.625Z,18.34
2018-05-14T08:42:35.642Z,18.26
2018-05-14T08:44:33.747Z,18.32
2018-05-14T08:45:33.739Z,18.29
2018-05-14T08:47:30.704Z,18.19
2018-05-14T08:48:29.698Z,18.29
2018-05-14T08:50:25.682Z,18.16
2018-05-14T08:51:25.644Z,18.31
2018-05-14T08:53:21.614Z,18.45
2018-05-14T08:54:21.718Z,18.42
2018-05-14T08:56:18.067Z,18.60
2018-05-14T08:57:17.556Z,18.65
2018-05-14T08:59:13.521Z,18.74
2018-05-14T09:00:13.516Z,18.76
2018-05-14T09:02:11.469Z,18.96
2018-05-14T09:03:09.505Z,19.05
2018-05-14T09:05:05.447Z,19.16
2018-05-14T09:06:05.452Z,19.25
2018-05-14T09:08:02.937Z,19.37
2018-05-14T09:09:01.395Z,19.25
2018-05-14T09:10:57.347Z,19.28
2018-05-14T09:11:57.329Z,19.34
2018-05-14T09:13:53.282Z,19.34
2018-05-14T09:14:53.278Z,19.34
2018-05-14T09:16:49.232Z,19.20
2018-05-14T09:17:49.232Z,19.32
2018-05-14T09:19:48.188Z,19.31
2018-05-14T09:20:47.345Z,19.40
2018-05-14T09:22:43.297Z,19.43
2018-05-14T09:23:43.288Z,19.46
2018-05-14T09:25:39.757Z,19.74
2018-05-14T09:26:39.237Z,19.64
2018-05-14T09:28:41.390Z,19.61
2018-05-14T09:29:35.711Z,19.80
2018-05-14T09:31:33.145Z,19.86
2018-05-14T09:32:33.128Z,19.79
2018-05-14T09:34:31.235Z,19.98
2018-05-14T09:35:31.256Z,19.98
2018-05-14T09:37:27.217Z,19.92
2018-05-14T09:38:27.746Z,19.89
2018-05-14T09:40:23.169Z,19.87
2018-05-14T09:41:23.646Z,19.83
2018-05-14T09:43:19.097Z,19.80
2018-05-14T09:44:19.601Z,19.83
2018-05-14T09:46:15.643Z,19.85
2018-05-14T09:47:15.074Z,19.80
2018-05-14T09:49:13.071Z,19.87
2018-05-14T09:50:13.004Z,19.83
2018-05-14T09:52:11.995Z,19.87
2018-05-14T09:53:11.472Z,19.79
2018-05-14T09:55:08.423Z,19.70
2018-05-14T09:56:08.428Z,19.74
2018-05-14T09:58:03.890Z,19.83
2018-05-14T09:59:02.912Z,19.85
2018-05-14T10:00:59.892Z,19.92
2018-05-14T10:01:58.793Z,19.95
2018-05-14T10:03:54.767Z,19.98
2018-05-14T10:04:55.763Z,20.07
2018-05-14T10:06:53.758Z,20.07
2018-05-14T10:07:52.900Z,20.10
2018-05-14T10:09:49.352Z,20.18
2018-05-14T10:10:48.838Z,20.20
2018-05-14T10:12:44.834Z,20.25
2018-05-14T10:13:44.818Z,20.32
2018-05-14T10:15:41.763Z,20.46
2018-05-14T10:16:40.760Z,20.49
2018-05-14T10:18:37.230Z,20.60
2018-05-14T10:19:36.708Z,20.60
2018-05-14T10:21:33.193Z,20.67
2018-05-14T10:22:32.664Z,20.72
2018-05-14T10:24:29.106Z,20.71
2018-05-14T10:25:28.595Z,20.71
2018-05-14T10:27:24.555Z,20.83
2018-05-14T10:28:24.539Z,20.88
2018-05-14T10:30:23.485Z,20.93
2018-05-14T10:31:22.646Z,20.97
2018-05-14T10:33:18.673Z,21.16
2018-05-14T10:34:18.608Z,21.16
2018-05-14T10:36:16.570Z,21.16
2018-05-14T10:37:17.110Z,21.27
2018-05-14T10:39:13.560Z,21.34
2018-05-14T10:40:13.516Z,21.31
2018-05-14T10:42:09.492Z,21.33
2018-05-14T10:43:09.012Z,21.31
2018-05-14T10:45:04.959Z,21.34
2018-05-14T10:46:04.445Z,21.38
2018-05-14T10:48:00.419Z,21.33
2018-05-14T10:49:00.440Z,21.49
2018-05-14T10:50:56.394Z,21.62
2018-05-14T10:51:56.350Z,21.62
2018-05-14T10:53:53.306Z,21.62
2018-05-14T10:54:53.307Z,21.71
2018-05-14T10:56:49.775Z,21.76
2018-05-14T10:57:48.785Z,21.82
2018-05-14T10:59:44.253Z,21.80
2018-05-14T11:00:44.228Z,21.85
2018-05-14T11:02:40.204Z,21.93
2018-05-14T11:03:40.186Z,21.90
2018-05-14T11:05:36.144Z,22.12
2018-05-14T11:06:36.152Z,22.18
2018-05-14T11:08:32.626Z,22.14
2018-05-14T11:09:32.110Z,22.07
2018-05-14T11:11:28.105Z,22.12
2018-05-14T11:12:28.044Z,22.08
2018-05-14T11:14:23.995Z,22.20
2018-05-14T11:15:23.994Z,22.29
2018-05-14T11:17:19.983Z,22.33
2018-05-14T11:18:19.944Z,22.46
2018-05-14T11:20:15.951Z,22.39
2018-05-14T11:21:15.916Z,22.44
2018-05-14T11:23:13.850Z,22.29
2018-05-14T11:24:13.868Z,22.23
2018-05-14T11:26:10.347Z,22.33
2018-05-14T11:27:09.820Z,22.48
2018-05-14T11:29:06.831Z,22.57
2018-05-14T11:30:05.806Z,22.66
2018-05-14T11:32:01.782Z,22.75
2018-05-14T11:33:01.739Z,22.66
2018-05-14T11:34:57.708Z,22.79
2018-05-14T11:35:57.701Z,22.82
2018-05-14T11:37:53.657Z,22.91
2018-05-14T11:38:53.659Z,22.85
2018-05-14T11:40:49.579Z,22.92
2018-05-14T11:41:49.585Z,22.86
2018-05-14T11:43:47.702Z,22.81
2018-05-14T11:44:50.467Z,22.88
2018-05-14T11:46:43.668Z,23.09
2018-05-14T11:47:43.654Z,23.26
2018-05-14T11:49:41.600Z,23.28
2018-05-14T11:50:41.724Z,23.25
2018-05-14T11:52:38.085Z,23.25
2018-05-14T11:53:38.497Z,23.25
2018-05-14T11:55:35.021Z,23.26
2018-05-14T11:56:35.111Z,23.37
2018-05-14T11:58:31.628Z,23.28
2018-05-14T11:59:31.665Z,23.40
2018-05-14T12:01:27.545Z,23.35
2018-05-14T12:02:27.553Z,23.41
2018-05-14T12:04:30.012Z,23.47
2018-05-14T12:05:29.032Z,23.44
2018-05-14T12:07:26.158Z,23.63
2018-05-14T12:08:28.005Z,23.66
2018-05-14T12:10:23.154Z,23.84
2018-05-14T12:11:22.629Z,23.89
2018-05-14T12:13:20.059Z,23.90
2018-05-14T12:14:20.082Z,23.90
2018-05-14T12:16:16.135Z,23.99
2018-05-14T12:17:16.056Z,24.08
2018-05-14T12:19:12.040Z,24.30
2018-05-14T12:20:12.038Z,24.39
2018-05-14T12:22:08.491Z,24.30
2018-05-14T12:23:08.497Z,24.40
2018-05-14T12:25:03.978Z,24.40
2018-05-14T12:26:03.964Z,24.32
2018-05-14T12:28:00.434Z,24.52
2018-05-14T12:28:59.991Z,24.54
2018-05-14T12:30:58.435Z,24.66
2018-05-14T12:31:57.920Z,24.67
2018-05-14T12:33:59.321Z,24.85
2018-05-14T12:34:58.309Z,24.80
2018-05-14T12:36:54.848Z,24.77
2018-05-14T12:37:54.278Z,24.83
2018-05-14T12:39:50.783Z,24.64
2018-05-14T12:40:50.750Z,24.64
2018-05-14T12:42:48.696Z,24.89
2018-05-14T12:43:48.184Z,24.92
2018-05-14T12:45:44.682Z,25.01
2018-05-14T12:46:45.171Z,24.92
2018-05-14T12:48:40.639Z,24.82
2018-05-14T12:49:41.133Z,24.87
2018-05-14T12:51:36.123Z,24.96
2018-05-14T12:52:36.073Z,24.87
2018-05-14T12:54:34.220Z,25.01
2018-05-14T12:55:34.216Z,25.08
2018-05-14T12:57:31.696Z,25.20
2018-05-14T12:58:31.222Z,25.37
2018-05-14T13:00:27.175Z,25.49
2018-05-14T13:01:27.180Z,25.49
2018-05-14T13:03:23.161Z,25.64
2018-05-14T13:04:23.140Z,25.81
2018-05-14T13:06:21.147Z,25.96
2018-05-14T13:07:21.112Z,25.93
2018-05-14T13:09:19.617Z,25.82
2018-05-14T13:10:19.147Z,25.76
2018-05-14T13:12:15.065Z,25.81
2018-05-14T13:13:15.088Z,25.69
2018-05-14T13:15:14.548Z,25.64
2018-05-14T13:16:13.179Z,25.62
2018-05-14T13:18:09.660Z,25.45
2018-05-14T13:19:09.164Z,25.42
2018-05-14T13:21:10.127Z,25.09
2018-05-14T13:22:09.606Z,25.00
2018-05-14T13:24:10.622Z,24.93
2018-05-14T13:25:10.618Z,24.78
2018-05-14T13:27:06.084Z,24.70
2018-05-14T13:28:06.037Z,24.70
2018-05-14T13:30:04.593Z,24.67
2018-05-14T13:31:05.055Z,24.70
2018-05-14T13:33:04.552Z,24.67
2018-05-14T13:34:05.556Z,24.66
2018-05-14T13:36:06.617Z,24.71
2018-05-14T13:37:05.024Z,24.83
2018-05-14T13:39:01.523Z,24.80
2018-05-14T13:40:00.956Z,24.87
2018-05-14T13:42:01.934Z,25.17
2018-05-14T13:43:01.411Z,25.19
2018-05-14T13:44:59.612Z,25.29
2018-05-14T13:46:00.412Z,25.39
2018-05-14T13:47:57.538Z,25.57
2018-05-14T13:48:57.507Z,25.64
2018-05-14T13:50:54.517Z,25.81
2018-05-14T13:51:53.969Z,25.84
2018-05-14T13:53:49.403Z,26.04
2018-05-14T13:54:49.405Z,26.06
2018-05-14T13:56:47.885Z,26.19
2018-05-14T13:57:48.382Z,26.04
2018-05-14T13:59:46.621Z,26.06
2018-05-14T14:00:46.583Z,26.04
2018-05-14T14:02:42.684Z,26.12
2018-05-14T14:03:41.667Z,26.24
2018-05-14T14:05:37.667Z,26.32
2018-05-14T14:06:37.647Z,26.24
2018-05-14T14:08:33.605Z,26.24
2018-05-14T14:09:33.593Z,26.24
2018-05-14T14:11:30.111Z,26.24
2018-05-14T14:12:30.489Z,26.23
2018-05-14T14:14:25.506Z,26.32
2018-05-14T14:15:26.489Z,26.35
2018-05-14T14:17:21.494Z,26.52
2018-05-14T14:18:21.468Z,26.56
2018-05-14T14:20:17.939Z,26.68
2018-05-14T14:21:17.448Z,26.61
2018-05-14T14:23:14.449Z,26.75
2018-05-14T14:24:13.477Z,26.74
2018-05-14T14:26:09.358Z,26.74
2018-05-14T14:27:09.359Z,26.63
2018-05-14T14:29:06.339Z,26.63
2018-05-14T14:30:05.353Z,26.61
2018-05-14T14:32:02.317Z,26.56
2018-05-14T14:33:02.329Z,26.45
2018-05-14T14:34:58.317Z,26.45
2018-05-14T14:35:58.421Z,26.42
2018-05-14T14:37:54.254Z,26.50
2018-05-14T14:38:54.258Z,26.42
2018-05-14T14:40:50.747Z,26.37
2018-05-14T14:41:50.739Z,26.44
2018-05-14T14:43:46.158Z,26.19
2018-05-14T14:44:47.670Z,26.31
2018-05-14T14:46:42.641Z,26.37
2018-05-14T14:47:42.109Z,26.31
2018-05-14T14:49:39.081Z,26.42
2018-05-14T14:50:39.077Z,26.56
2018-05-14T14:52:34.085Z,26.63
2018-05-14T14:53:34.180Z,26.57
2018-05-14T14:55:30.067Z,26.63
2018-05-14T14:56:30.077Z,26.67
2018-05-14T14:58:26.573Z,26.61
2018-05-14T14:59:26.026Z,26.61
2018-05-14T15:01:22.502Z,26.67
2018-05-14T15:02:21.961Z,26.79
2018-05-14T15:04:17.931Z,26.74
2018-05-14T15:05:17.919Z,26.60
2018-05-14T15:07:13.881Z,26.74
2018-05-14T15:08:13.903Z,26.78
2018-05-14T15:10:09.892Z,26.94
2018-05-14T15:11:10.363Z,26.90
2018-05-14T15:13:08.828Z,26.94
2018-05-14T15:14:07.976Z,26.96
2018-05-14T15:16:05.451Z,26.93
2018-05-14T15:17:03.948Z,27.00
2018-05-14T15:19:00.953Z,27.01
2018-05-14T15:19:59.933Z,26.91
2018-05-14T15:21:56.880Z,27.00
2018-05-14T15:22:55.867Z,26.99
2018-05-14T15:24:51.859Z,26.87
2018-05-14T15:25:51.848Z,27.00
2018-05-14T15:27:47.809Z,26.86
2018-05-14T15:28:47.815Z,26.87
2018-05-14T15:30:43.783Z,26.89
2018-05-14T15:31:44.275Z,26.94
2018-05-14T15:33:39.714Z,27.04
2018-05-14T15:34:40.698Z,27.05
2018-05-14T15:36:36.177Z,27.11
2018-05-14T15:37:35.674Z,27.06
2018-05-14T15:39:33.658Z,27.11
2018-05-14T15:40:33.662Z,27.09
2018-05-14T15:42:30.108Z,27.13
2018-05-14T15:43:29.620Z,27.09
2018-05-14T15:45:25.644Z,27.11
2018-05-14T15:46:25.581Z,27.09
2018-05-14T15:48:23.646Z,27.23
2018-05-14T15:49:24.480Z,27.26
2018-05-14T15:51:19.475Z,27.24
2018-05-14T15:52:19.491Z,27.23
2018-05-14T15:54:15.952Z,27.30
2018-05-14T15:55:15.534Z,27.31
2018-05-14T15:57:11.430Z,27.33
2018-05-14T15:58:11.930Z,27.28
2018-05-14T16:00:10.922Z,27.27
2018-05-14T16:01:10.309Z,27.31
2018-05-14T16:03:07.540Z,27.49
2018-05-14T16:04:07.555Z,27.46
2018-05-14T16:06:03.516Z,27.71
2018-05-14T16:07:04.421Z,27.72
2018-05-14T16:08:59.509Z,27.62
2018-05-14T16:09:59.567Z,27.66
2018-05-14T16:11:55.463Z,27.64
2018-05-14T16:12:55.458Z,27.51
2018-05-14T16:14:51.966Z,27.55
2018-05-14T16:15:52.430Z,27.65
2018-05-14T16:17:47.947Z,27.66
2018-05-14T16:18:47.420Z,27.53
2018-05-14T16:20:43.901Z,27.45
2018-05-14T16:21:43.344Z,27.43
2018-05-14T16:23:39.290Z,27.24
2018-05-14T16:24:39.805Z,27.21
2018-05-14T16:26:35.303Z,27.16
2018-05-14T16:27:35.294Z,27.11
2018-05-14T16:29:31.770Z,27.00
2018-05-14T16:30:31.271Z,26.97
2018-05-14T16:32:28.259Z,27.00
2018-05-14T16:33:27.236Z,26.97
2018-05-14T16:35:23.692Z,26.84
2018-05-14T16:36:23.188Z,26.93
2018-05-14T16:38:19.135Z,26.68
2018-05-14T16:39:19.151Z,26.74
2018-05-14T16:41:17.602Z,26.64
2018-05-14T16:42:17.080Z,26.69
2018-05-14T16:44:13.553Z,26.61
2018-05-14T16:45:13.049Z,26.68
2018-05-14T16:47:09.533Z,26.64
2018-05-14T16:48:09.011Z,26.67
2018-05-14T16:50:04.992Z,26.61
2018-05-14T16:51:04.969Z,26.57
2018-05-14T16:53:03.457Z,26.56
2018-05-14T16:54:02.952Z,26.52
2018-05-14T16:55:59.946Z,26.42
2018-05-14T16:56:58.928Z,26.39
2018-05-14T16:58:55.886Z,26.31
2018-05-14T16:59:54.891Z,26.30
2018-05-14T17:01:52.351Z,26.27
2018-05-14T17:02:50.867Z,26.27
2018-05-14T17:04:46.904Z,26.27
2018-05-14T17:05:46.815Z,26.20
2018-05-14T17:07:42.804Z,26.16
2018-05-14T17:08:43.781Z,26.20
2018-05-14T17:10:37.302Z,26.19
2018-05-14T17:11:37.215Z,26.04
2018-05-14T17:13:34.190Z,26.15
2018-05-14T17:14:33.207Z,26.03
2018-05-14T17:16:30.687Z,26.01
2018-05-14T17:17:29.151Z,26.03
2018-05-14T17:19:25.149Z,26.04
2018-05-14T17:20:26.126Z,26.01
2018-05-14T17:22:22.593Z,26.01
2018-05-14T17:23:22.092Z,25.94
2018-05-14T17:25:18.084Z,25.89
2018-05-14T17:26:18.070Z,25.81
2018-05-14T17:28:13.018Z,25.85
2018-05-14T17:29:13.049Z,25.81
2018-05-14T17:31:08.972Z,25.75
2018-05-14T17:32:09.921Z,25.76
2018-05-14T17:34:05.434Z,25.79
2018-05-14T17:35:04.918Z,25.70
2018-05-14T17:37:01.827Z,25.62
2018-05-14T17:38:00.900Z,25.57
2018-05-14T17:39:56.875Z,25.62
2018-05-14T17:40:56.847Z,25.63
2018-05-14T17:42:54.816Z,25.60
2018-05-14T17:43:54.802Z,25.49
2018-05-14T17:45:50.781Z,25.52
2018-05-14T17:46:51.289Z,25.63
2018-05-14T17:48:46.754Z,25.66
2018-05-14T17:49:46.728Z,25.67
2018-05-14T17:51:42.750Z,25.74
2018-05-14T17:52:42.706Z,25.76
2018-05-14T17:54:38.685Z,25.78
2018-05-14T17:55:39.173Z,25.71
2018-05-14T17:57:34.665Z,25.76
2018-05-14T17:58:34.647Z,25.75
2018-05-14T18:00:33.609Z,25.69
2018-05-14T18:01:32.756Z,25.63
2018-05-14T18:03:28.709Z,25.69
2018-05-14T18:04:28.714Z,25.81
2018-05-14T18:06:24.715Z,25.71
2018-05-14T18:07:24.702Z,25.69
2018-05-14T18:09:20.672Z,25.64
2018-05-14T18:10:20.656Z,25.60
2018-05-14T18:12:18.623Z,25.49
2018-05-14T18:13:16.631Z,25.42
2018-05-14T18:15:12.595Z,25.49
2018-05-14T18:16:12.603Z,25.51
2018-05-14T18:18:10.096Z,25.34
2018-05-14T18:19:09.062Z,25.33
2018-05-14T18:21:07.531Z,25.24
2018-05-14T18:22:07.048Z,25.22
2018-05-14T18:24:02.460Z,25.20
2018-05-14T18:25:02.531Z,25.23
2018-05-14T18:26:58.926Z,25.12
2018-05-14T18:27:58.428Z,25.08
2018-05-14T18:29:54.425Z,25.07
2018-05-14T18:30:54.396Z,25.05
2018-05-14T18:32:50.371Z,25.07
2018-05-14T18:33:50.381Z,25.00
2018-05-14T18:35:46.296Z,24.92
2018-05-14T18:36:46.323Z,24.82
2018-05-14T18:38:42.263Z,24.78
2018-05-14T18:39:42.262Z,24.74
2018-05-14T18:41:38.169Z,24.69
2018-05-14T18:42:38.195Z,24.56
2018-05-14T18:44:34.156Z,24.56
2018-05-14T18:45:34.173Z,24.54
2018-05-14T18:47:30.154Z,24.40
2018-05-14T18:48:30.130Z,24.36
2018-05-14T18:50:28.092Z,24.40
2018-05-14T18:51:26.141Z,24.30
2018-05-14T18:53:22.108Z,24.09
2018-05-14T18:54:22.100Z,24.12